METAR Data
IDs: Format: Raw Decoded Include TAF

Data at: 1924 UTC 25 Sep 2020

KMWC 251845Z 21014G16KT 10SM CLR 25/11 A2991
KMWC 251745Z 19012G18KT 10SM CLR 24/09 A2995
KMWC 251645Z 19015KT 10SM CLR 23/10 A2997
KMWC 251545Z 21013KT 10SM CLR 23/11 A2998
KMWC 251445Z 19009KT 10SM CLR 21/12 A2998
KMWC 251345Z 23005KT 10SM CLR 18/12 A2998
KMWC 251245Z 18003KT 10SM CLR 15/11 A2998
KMWC 251215Z AUTO 19003KT 10SM CLR 13/10 A2998 RMK AO2
KMWC 251155Z AUTO 00000KT 10SM CLR 13/10 A2997 RMK AO2
KMWC 251135Z AUTO 00000KT 10SM CLR 13/10 A2997 RMK AO2
KMWC 251115Z AUTO 21003KT 10SM CLR 13/09 A2997 RMK AO2
KMWC 251055Z AUTO 19004KT 10SM CLR 15/10 A2996 RMK AO2
KMWC 251035Z AUTO 00000KT 10SM CLR 15/10 A2996 RMK AO2
KMWC 251015Z AUTO 22003KT 10SM CLR 13/11 A2996 RMK AO2
KMWC 250955Z AUTO 25003KT 10SM SCT050 13/10 A2995 RMK AO2
KMWC 250935Z AUTO 00000KT 10SM SCT050 13/11 A2995 RMK AO2
KMWC 250915Z AUTO 21003KT 10SM CLR 13/11 A2995 RMK AO2
KMWC 250855Z AUTO 19003KT 10SM CLR 13/10 A2994 RMK AO2
KMWC 250835Z AUTO 18003KT 10SM CLR 13/11 A2993 RMK AO2
KMWC 250815Z AUTO 18003KT 10SM CLR 14/11 A2993 RMK AO2
KMWC 250755Z AUTO 00000KT 10SM CLR 15/10 A2993 RMK AO2
KMWC 250735Z AUTO 19003KT 10SM CLR 15/11 A2993 RMK AO2
KMWC 250715Z AUTO 00000KT 10SM CLR 16/11 A2993 RMK AO2
KMWC 250655Z AUTO 00000KT 10SM CLR 16/11 A2993 RMK AO2
KMWC 250635Z AUTO 00000KT 10SM SCT065 16/12 A2993 RMK AO2
KMWC 250615Z AUTO 00000KT 10SM SCT065 17/12 A2993 RMK AO2
KMWC 250555Z AUTO 20003KT 10SM SCT070 SCT085 17/12 A2993 RMK AO2
KMWC 250535Z AUTO 19004KT 10SM SCT070 OVC085 17/12 A2993 RMK AO2
KMWC 250515Z AUTO 19005KT 10SM BKN070 OVC090 17/12 A2993 RMK AO2
KMWC 250455Z AUTO 19005KT 10SM BKN070 BKN090 17/12 A2992 RMK AO2
KMWC 250435Z AUTO 19003KT 10SM BKN090 17/12 A2993 RMK AO2
KMWC 250415Z AUTO 18005KT 10SM BKN090 18/12 A2992 RMK AO2
KMWC 250355Z AUTO 18004KT 10SM SCT090 BKN110 18/13 A2993 RMK AO2
KMWC 250335Z AUTO 17004KT 10SM BKN090 BKN110 18/13 A2992 RMK AO2
KMWC 250315Z AUTO 18004KT 10SM BKN090 OVC110 18/13 A2992 RMK AO2
KMWC 250255Z AUTO 17004KT 10SM SCT090 BKN110 18/13 A2992 RMK AO2
KMWC 250235Z AUTO 17003KT 10SM SCT049 SCT110 18/13 A2992 RMK AO2
KMWC 250215Z AUTO 19003KT 10SM CLR 18/13 A2992 RMK AO2
KMWC 250155Z AUTO 17003KT 10SM CLR 19/13 A2991 RMK AO2
KMWC 250145Z 18003KT 10SM CLR 20/14 A2991
KMWC 250045Z 19004KT 10SM SCT120 21/13 A2990
KMWC 242345Z 00000KT 10SM SCT120 22/13 A2991
KMWC 242245Z 21005KT 10SM CLR 23/12 A2989
KMWC 242145Z 23005KT 10SM SCT060 23/12 A2988
KMWC 242045Z 22005KT 10SM BKN044 BKN049 23/12 A2988
KMWC 241945Z 21008KT 10SM SCT041 SCT050 SCT065 23/12 A2990
KMWC 241845Z 23009KT 10SM SCT043 BKN050 BKN065 23/12 A2991
KMWC 241745Z 22009KT 10SM SCT041 SCT047 24/12 A2992
KMWC 241645Z 22010KT 10SM SCT036 23/12 A2993
KMWC 241545Z 23005KT 10SM CLR 21/13 A2995
KMWC 241445Z 24004KT 10SM SKC 20/13 A2995
KMWC 241345Z 21003KT 10SM SKC 17/12 A2995
KMWC 241245Z 21003KT 10SM SKC 15/12 A2995
KMWC 241215Z AUTO 21003KT 10SM CLR 13/10 A2995 RMK AO2
KMWC 241155Z AUTO 00000KT 10SM CLR 13/10 A2995 RMK AO2
KMWC 241135Z AUTO 23003KT 10SM CLR 12/10 A2995 RMK AO2
KMWC 241115Z AUTO 21004KT 10SM CLR 12/10 A2994 RMK AO2
KMWC 241055Z AUTO 00000KT 10SM CLR 12/10 A2995 RMK AO2
KMWC 241035Z AUTO 00000KT 10SM CLR 12/10 A2994 RMK AO2
KMWC 241015Z AUTO 00000KT 10SM CLR 13/10 A2994 RMK AO2
KMWC 240955Z AUTO 00000KT 10SM CLR 13/10 A2994 RMK AO2
KMWC 240935Z AUTO 00000KT 10SM CLR 13/10 A2994 RMK AO2
KMWC 240915Z AUTO 00000KT 10SM CLR 13/11 A2994 RMK AO2
KMWC 240855Z AUTO 00000KT 10SM CLR 13/10 A2994 RMK AO2
KMWC 240835Z AUTO 00000KT 10SM CLR 14/11 A2994 RMK AO2
KMWC 240815Z AUTO 00000KT 10SM CLR 14/11 A2994 RMK AO2
KMWC 240755Z AUTO 00000KT 10SM CLR 14/11 A2994 RMK AO2
KMWC 240735Z AUTO 23003KT 10SM CLR 14/10 A2994 RMK AO2